Time;durP1;ratioP1;P1;durP2;ratioP2;P2;SDS_P1;SDS_P2;PMS_P1;PMS_P2;Temp;Humidity;BMP_temperature;BMP_pressure;BME280_temperature;BME280_humidity;BME280_pressure;Samples;Min_cycle;Max_cycle;Signal;HPM_P1;HPM_P2
2021/12/20 04:01:51;;;;;;;8.90;7.30;;;6.20;81.90;;;;;;5446711;23;20496;-67
2021/12/20 04:04:17;;;;;;;8.77;7.47;;;6.20;81.80;;;;;;4998343;28;21061;-67
2021/12/20 04:06:44;;;;;;;8.23;6.57;;;6.20;81.60;;;;;;4997119;28;20445;-68
2021/12/20 04:09:11;;;;;;;8.00;6.97;;;6.20;81.50;;;;;;4996792;28;20508;-68
2021/12/20 04:11:37;;;;;;;8.50;7.23;;;6.20;81.50;;;;;;4996450;28;20476;-68
2021/12/20 04:14:04;;;;;;;9.77;6.80;;;6.10;81.80;;;;;;5019726;23;20535;-72
2021/12/20 04:16:31;;;;;;;7.80;6.40;;;6.10;82.10;;;;;;4995465;28;20944;-72
2021/12/20 04:18:59;;;;;;;8.50;7.50;;;6.20;81.90;;;;;;4995734;28;20568;-72
2021/12/20 04:21:26;;;;;;;8.27;6.80;;;6.10;82.20;;;;;;4995657;28;20500;-72
2021/12/20 04:23:53;;;;;;;9.50;7.60;;;6.10;82.30;;;;;;4995271;28;20465;-72
2021/12/20 04:26:19;;;;;;;8.47;6.90;;;6.10;82.30;;;;;;4995490;28;20500;-72
2021/12/20 04:28:46;;;;;;;9.77;7.33;;;6.20;82.20;;;;;;4995531;28;20449;-72
2021/12/20 04:31:13;;;;;;;9.07;7.87;;;6.20;82.20;;;;;;4995405;28;20449;-72
2021/12/20 04:33:40;;;;;;;9.23;6.80;;;6.20;82.10;;;;;;4995339;28;20473;-72
2021/12/20 04:36:08;;;;;;;8.40;6.70;;;6.20;82.20;;;;;;4995367;28;20461;-70
2021/12/20 04:38:35;;;;;;;9.10;6.80;;;6.20;82.20;;;;;;4995398;28;20458;-72
2021/12/20 04:41:02;;;;;;;8.60;6.73;;;6.20;82.30;;;;;;4995461;28;20454;-72
2021/12/20 04:43:29;;;;;;;8.30;6.63;;;6.20;82.20;;;;;;4995159;28;20492;-72
2021/12/20 04:45:56;;;;;;;8.77;7.60;;;6.20;82.20;;;;;;4995080;28;20481;-72
2021/12/20 04:48:22;;;;;;;7.60;6.60;;;6.10;82.30;;;;;;4995386;28;20462;-72
2021/12/20 04:50:49;;;;;;;9.27;7.47;;;6.20;82.20;;;;;;4994983;28;21007;-72
2021/12/20 04:53:17;;;;;;;7.80;6.30;;;6.20;82.30;;;;;;4994873;28;21050;-71
2021/12/20 04:55:44;;;;;;;9.20;7.03;;;6.20;82.30;;;;;;4995272;28;20511;-71
2021/12/20 04:58:11;;;;;;;9.13;5.80;;;6.20;82.30;;;;;;4995017;28;20445;-71
2021/12/20 05:00:40;;;;;;;9.13;6.17;;;6.20;82.30;;;;;;4995073;28;20445;-72
2021/12/20 05:03:07;;;;;;;8.77;7.53;;;6.20;82.30;;;;;;4994813;28;20469;-71
2021/12/20 05:05:34;;;;;;;8.80;6.33;;;6.20;82.20;;;;;;4994397;28;20895;-71
2021/12/20 05:08:03;;;;;;;7.30;6.00;;;6.20;82.10;;;;;;4994825;28;20437;-71
2021/12/20 05:10:34;;;;;;;7.30;5.90;;;6.20;82.20;;;;;;4994737;28;20503;-72
2021/12/20 05:13:03;;;;;;;7.07;6.20;;;6.20;82.10;;;;;;4994508;28;20440;-71
2021/12/20 05:15:30;;;;;;;6.83;5.83;;;6.20;82.20;;;;;;4994714;28;20430;-71
2021/12/20 05:17:57;;;;;;;7.80;5.20;;;6.20;82.20;;;;;;4994646;28;20499;-71
2021/12/20 05:20:25;;;;;;;7.20;4.83;;;6.20;82.20;;;;;;4994582;28;20453;-72
2021/12/20 05:22:52;;;;;;;7.87;5.87;;;6.20;82.30;;;;;;4994209;28;20438;-71
2021/12/20 05:25:18;;;;;;;6.87;5.17;;;6.20;82.10;;;;;;4994642;28;20481;-72
2021/12/20 05:27:47;;;;;;;5.90;4.73;;;6.20;82.10;;;;;;4994578;28;20449;-72
2021/12/20 05:30:15;;;;;;;7.83;6.43;;;6.20;82.20;;;;;;4994515;28;20861;-72
2021/12/20 05:32:43;;;;;;;10.53;9.00;;;6.20;82.10;;;;;;4995004;28;20448;-72
2021/12/20 05:35:11;;;;;;;6.60;5.80;;;6.20;82.20;;;;;;4994352;28;20492;-72
2021/12/20 05:37:38;;;;;;;8.50;6.53;;;6.20;82.10;;;;;;4993730;28;20449;-71
2021/12/20 05:40:07;;;;;;;7.97;5.17;;;6.20;82.00;;;;;;4993997;28;20995;-71
2021/12/20 05:42:33;;;;;;;7.87;5.00;;;6.30;82.00;;;;;;4994309;28;20445;-72
2021/12/20 05:45:02;;;;;;;7.20;4.97;;;6.30;81.90;;;;;;4994075;28;20481;-72
2021/12/20 05:47:28;;;;;;;6.80;4.50;;;6.20;81.80;;;;;;4994204;28;20810;-71
2021/12/20 05:49:55;;;;;;;7.07;5.30;;;6.20;82.00;;;;;;4994192;28;20864;-72
2021/12/20 05:52:22;;;;;;;8.80;5.60;;;6.20;82.00;;;;;;4994200;28;20457;-71
2021/12/20 05:54:49;;;;;;;6.93;4.73;;;6.20;82.00;;;;;;4994108;28;20535;-72
2021/12/20 05:57:16;;;;;;;7.10;5.63;;;6.20;81.90;;;;;;4994131;28;20445;-72
2021/12/20 05:59:42;;;;;;;6.53;4.77;;;6.20;81.90;;;;;;4994114;28;20444;-71
2021/12/20 06:02:10;;;;;;;6.77;5.17;;;6.20;81.90;;;;;;4994085;28;20480;-71
2021/12/20 06:04:37;;;;;;;6.93;5.37;;;6.20;81.90;;;;;;4993911;28;20536;-71
2021/12/20 06:07:04;;;;;;;8.73;6.37;;;6.00;82.40;;;;;;4994079;28;20503;-71
2021/12/20 06:09:30;;;;;;;6.07;5.33;;;6.10;82.40;;;;;;4993685;28;20813;-72
2021/12/20 06:11:59;;;;;;;6.70;5.00;;;6.10;82.40;;;;;;4994013;28;20503;-71
2021/12/20 06:14:27;;;;;;;9.07;5.07;;;6.10;82.40;;;;;;4993983;28;20540;-72
2021/12/20 06:16:55;;;;;;;5.57;4.87;;;6.10;82.10;;;;;;4994517;28;20524;-71
2021/12/20 06:19:23;;;;;;;7.70;5.50;;;6.10;82.00;;;;;;4994034;28;20592;-71
2021/12/20 06:21:50;;;;;;;5.77;4.50;;;6.00;82.20;;;;;;4993974;28;20460;-72
2021/12/20 06:24:16;;;;;;;8.03;6.20;;;6.00;82.30;;;;;;4993842;28;20464;-71
2021/12/20 06:26:43;;;;;;;7.10;5.57;;;6.00;82.20;;;;;;4993750;28;20484;-72
2021/12/20 06:29:10;;;;;;;7.33;5.43;;;6.00;82.10;;;;;;4993803;28;20504;-71
2021/12/20 06:31:36;;;;;;;7.67;6.10;;;6.00;82.20;;;;;;4993545;28;20499;-72
2021/12/20 06:34:03;;;;;;;8.00;5.87;;;6.10;82.20;;;;;;4993366;28;20527;-71
2021/12/20 06:36:31;;;;;;;8.33;6.10;;;6.10;82.00;;;;;;4993670;28;20445;-71
2021/12/20 06:38:58;;;;;;;7.30;5.73;;;6.10;82.10;;;;;;4993723;28;20528;-72
2021/12/20 06:41:25;;;;;;;8.47;6.37;;;6.10;82.10;;;;;;4993693;28;20479;-72
2021/12/20 06:43:52;;;;;;;9.23;6.40;;;6.10;82.00;;;;;;4993606;28;20468;-71
2021/12/20 06:46:21;;;;;;;8.00;5.23;;;6.10;82.00;;;;;;4993228;28;20863;-72
2021/12/20 06:48:48;;;;;;;8.07;5.77;;;6.10;82.00;;;;;;4996474;28;20448;-72
2021/12/20 06:51:15;;;;;;;6.73;5.60;;;6.10;82.10;;;;;;4997396;28;20453;-72
2021/12/20 06:53:43;;;;;;;6.60;4.87;;;6.10;82.20;;;;;;4997232;28;20477;-71
2021/12/20 06:56:12;;;;;;;7.30;5.47;;;6.10;82.10;;;;;;4997232;28;20457;-71
2021/12/20 06:58:38;;;;;;;7.10;5.30;;;6.10;82.20;;;;;;4997409;28;20540;-71
2021/12/20 07:01:05;;;;;;;6.50;5.27;;;6.10;82.40;;;;;;4997135;28;20500;-72
2021/12/20 07:03:32;;;;;;;7.13;5.90;;;6.10;82.20;;;;;;4996747;28;20468;-71
2021/12/20 07:05:59;;;;;;;8.13;5.93;;;6.00;82.20;;;;;;4996993;28;20480;-71
2021/12/20 07:08:25;;;;;;;7.70;5.67;;;6.00;82.30;;;;;;4997052;28;20473;-72
2021/12/20 07:10:53;;;;;;;6.70;5.30;;;6.10;82.00;;;;;;4996970;28;20507;-72
2021/12/20 07:13:21;;;;;;;7.40;5.97;;;6.00;82.30;;;;;;4996782;28;20488;-71
2021/12/20 07:15:48;;;;;;;8.17;6.23;;;6.10;82.10;;;;;;4996939;28;20434;-71
2021/12/20 07:18:15;;;;;;;7.30;5.93;;;6.10;82.20;;;;;;4996835;28;20444;-71
2021/12/20 07:20:41;;;;;;;8.10;6.00;;;6.10;82.10;;;;;;4996797;28;20452;-71
2021/12/20 07:23:08;;;;;;;7.70;5.77;;;6.20;82.10;;;;;;4996747;28;20519;-71
2021/12/20 07:25:35;;;;;;;8.50;5.77;;;6.20;82.00;;;;;;4996578;28;20527;-71
2021/12/20 07:28:03;;;;;;;7.90;5.83;;;6.20;82.00;;;;;;4996973;28;20449;-72
2021/12/20 07:30:30;;;;;;;8.57;6.13;;;6.20;81.90;;;;;;4996319;28;20936;-72
2021/12/20 07:32:57;;;;;;;7.80;6.17;;;6.20;82.00;;;;;;4996416;28;20453;-71
2021/12/20 07:35:23;;;;;;;8.63;6.30;;;6.20;81.80;;;;;;4996489;28;20445;-72
2021/12/20 07:37:52;;;;;;;6.60;5.47;;;5.80;82.10;;;;;;4996478;28;20453;-71
2021/12/20 07:40:19;;;;;;;6.60;5.20;;;5.90;82.80;;;;;;4996398;28;20457;-71
2021/12/20 07:42:45;;;;;;;7.17;5.70;;;6.00;82.40;;;;;;4996812;28;20456;-71
2021/12/20 07:45:13;;;;;;;8.13;6.70;;;6.00;82.30;;;;;;4997833;28;20480;-71
2021/12/20 07:47:40;;;;;;;6.80;5.50;;;6.10;82.30;;;;;;4996887;28;20442;-71
2021/12/20 07:50:08;;;;;;;9.87;6.87;;;6.10;82.10;;;;;;4996405;28;20449;-72
2021/12/20 07:52:35;;;;;;;7.07;5.87;;;6.20;82.20;;;;;;4996301;28;20449;-71
2021/12/20 07:55:01;;;;;;;6.50;5.23;;;6.10;81.80;;;;;;4996147;28;20523;-71
2021/12/20 07:57:28;;;;;;;8.53;6.47;;;6.00;82.20;;;;;;4996144;28;20453;-71
2021/12/20 07:59:55;;;;;;;6.57;5.70;;;5.90;82.30;;;;;;4995566;28;20536;-72
2021/12/20 08:02:23;;;;;;;7.10;5.40;;;5.70;82.90;;;;;;4996102;28;20886;-71
2021/12/20 08:04:51;;;;;;;8.90;6.50;;;5.50;83.80;;;;;;4995972;28;20465;-71
2021/12/20 08:07:21;;;;;;;7.70;6.90;;;5.70;83.40;;;;;;4996078;28;20449;-71
2021/12/20 08:09:48;;;;;;;9.77;8.43;;;5.70;83.00;;;;;;4995676;28;20434;-71
2021/12/20 08:12:15;;;;;;;9.37;7.03;;;5.70;83.20;;;;;;4995612;28;20803;-71
2021/12/20 08:14:42;;;;;;;8.03;6.73;;;5.80;83.30;;;;;;4995429;28;20481;-71
2021/12/20 08:17:08;;;;;;;8.53;6.87;;;5.90;82.90;;;;;;4995828;28;20449;-72
2021/12/20 08:19:36;;;;;;;9.37;7.23;;;5.90;82.60;;;;;;4995808;28;20512;-71
2021/12/20 08:22:03;;;;;;;8.30;7.50;;;6.00;82.80;;;;;;4995737;28;20504;-71
2021/12/20 08:24:30;;;;;;;8.87;7.97;;;6.10;82.50;;;;;;4995276;28;20836;-71
2021/12/20 08:26:57;;;;;;;6.60;5.90;;;6.10;82.30;;;;;;4995621;28;20539;-71
2021/12/20 08:29:24;;;;;;;7.43;6.70;;;6.20;82.20;;;;;;4995571;28;20445;-71
2021/12/20 08:31:50;;;;;;;9.77;6.47;;;6.30;82.20;;;;;;4995624;28;20933;-71
2021/12/20 08:34:17;;;;;;;7.80;7.00;;;6.30;82.10;;;;;;4995375;28;20527;-72
2021/12/20 08:36:46;;;;;;;9.20;6.97;;;6.30;81.80;;;;;;4995488;28;20441;-71
2021/12/20 08:39:17;;;;;;;7.03;6.27;;;6.10;82.00;;;;;;4995527;28;20933;-71
2021/12/20 08:41:44;;;;;;;6.80;5.70;;;6.20;82.30;;;;;;4995342;28;20437;-71
2021/12/20 08:44:11;;;;;;;7.63;6.57;;;6.20;82.20;;;;;;4995232;28;20841;-72
2021/12/20 08:46:38;;;;;;;7.87;6.40;;;6.20;82.20;;;;;;4995362;28;20477;-71
2021/12/20 08:49:06;;;;;;;8.27;6.80;;;6.30;82.30;;;;;;4995180;28;20495;-70
2021/12/20 08:51:33;;;;;;;8.03;5.90;;;6.30;82.10;;;;;;4995205;28;20503;-71
2021/12/20 08:54:01;;;;;;;6.63;4.80;;;6.40;81.90;;;;;;4995170;28;20499;-72
2021/12/20 08:56:28;;;;;;;8.20;7.10;;;6.40;81.90;;;;;;4994977;28;20449;-71
2021/12/20 08:58:55;;;;;;;8.07;6.13;;;6.20;82.40;;;;;;4994948;28;20452;-71
2021/12/20 09:01:21;;;;;;;7.47;5.90;;;6.30;82.50;;;;;;4994903;28;20507;-71
2021/12/20 09:03:48;;;;;;;7.77;6.77;;;6.50;81.80;;;;;;4994553;28;20991;-71
2021/12/20 09:06:17;;;;;;;8.10;7.00;;;6.60;81.80;;;;;;4994788;28;20535;-71
2021/12/20 09:08:43;;;;;;;9.37;7.10;;;6.60;81.90;;;;;;4994805;28;20457;-72
2021/12/20 09:11:11;;;;;;;8.13;6.93;;;6.70;81.60;;;;;;4994128;28;20449;-72
2021/12/20 09:13:38;;;;;;;8.23;6.50;;;6.70;81.70;;;;;;4994544;28;20528;-71
2021/12/20 09:16:05;;;;;;;9.10;7.53;;;6.70;81.60;;;;;;4994690;28;20501;-71
2021/12/20 09:18:32;;;;;;;12.60;11.30;;;6.70;81.40;;;;;;4994713;28;20503;-70
2021/12/20 09:20:59;;;;;;;13.00;10.47;;;6.50;81.70;;;;;;4994310;28;20508;-71
2021/12/20 09:23:29;;;;;;;11.83;10.60;;;6.40;82.20;;;;;;4994467;28;20468;-70
2021/12/20 09:25:56;;;;;;;11.83;10.30;;;6.50;82.30;;;;;;4994466;28;20527;-70
2021/12/20 09:28:24;;;;;;;13.33;11.10;;;6.40;82.00;;;;;;4994523;28;20457;-70
2021/12/20 09:30:50;;;;;;;14.30;11.30;;;6.30;82.70;;;;;;4994437;28;20532;-70
2021/12/20 09:33:17;;;;;;;12.53;10.43;;;6.30;82.90;;;;;;4994322;28;20465;-71
2021/12/20 09:35:44;;;;;;;12.07;10.03;;;6.40;82.70;;;;;;4994363;28;20448;-70
2021/12/20 09:38:16;;;;;;;10.03;8.37;;;6.40;82.90;;;;;;4995286;28;20461;-70
2021/12/20 09:41:02;;;;;;;13.03;7.40;;;6.40;82.90;;;;;;4994281;28;20446;-72
2021/12/20 09:43:30;;;;;;;9.83;8.27;;;6.40;83.40;;;;;;4994257;28;20480;-70
2021/12/20 09:45:58;;;;;;;9.07;7.80;;;6.50;83.30;;;;;;4994157;28;20488;-70
2021/12/20 09:48:25;;;;;;;9.43;8.20;;;6.40;83.70;;;;;;4994103;28;20483;-70
2021/12/20 09:50:51;;;;;;;9.87;8.20;;;6.50;83.50;;;;;;4994060;28;20507;-70
2021/12/20 09:53:18;;;;;;;11.20;8.90;;;6.50;83.30;;;;;;4993601;28;20477;-70
2021/12/20 09:55:47;;;;;;;14.20;8.53;;;6.40;83.50;;;;;;4994158;28;20445;-70
2021/12/20 09:58:14;;;;;;;10.17;9.00;;;6.30;84.10;;;;;;4994071;28;20460;-69
2021/12/20 10:00:42;;;;;;;9.37;7.33;;;6.30;84.50;;;;;;4994096;28;20457;-70
2021/12/20 10:03:09;;;;;;;10.43;9.43;;;6.50;84.00;;;;;;4994007;28;20500;-71
2021/12/20 10:05:37;;;;;;;9.73;7.63;;;6.40;84.20;;;;;;4993914;28;20453;-69
2021/12/20 10:08:13;;;;;;;9.97;8.07;;;6.60;84.00;;;;;;4994120;28;20453;-70
2021/12/20 10:10:42;;;;;;;8.90;6.87;;;6.60;83.70;;;;;;4994025;28;20524;-71
2021/12/20 10:15:44;;;;;;;9.93;7.47;;;6.60;83.60;;;;;;5015034;23;20493;-67
2021/12/20 10:18:14;;;;;;;7.90;7.10;;;6.40;83.40;;;;;;4994014;28;20504;-67
2021/12/20 10:20:41;;;;;;;9.60;7.70;;;6.40;83.30;;;;;;4993610;28;20959;-68
2021/12/20 10:23:12;;;;;;;8.10;7.20;;;6.40;84.10;;;;;;4996485;28;20507;-67
2021/12/20 10:25:43;;;;;;;11.20;8.63;;;6.30;84.20;;;;;;4998257;28;21048;-73
2021/12/20 10:28:13;;;;;;;8.30;6.67;;;6.40;83.60;;;;;;4998285;28;20444;-72
2021/12/20 10:30:42;;;;;;;8.27;7.33;;;6.40;83.70;;;;;;4998279;28;20448;-73
2021/12/20 10:33:13;;;;;;;10.67;7.47;;;6.50;83.70;;;;;;4998241;28;20937;-72
2021/12/20 10:35:43;;;;;;;11.90;8.20;;;6.30;83.20;;;;;;4998026;28;20892;-73
2021/12/20 10:38:28;;;;;;;9.53;7.53;;;6.40;84.10;;;;;;4998048;28;20503;-73
2021/12/20 10:40:57;;;;;;;9.93;7.60;;;6.60;84.10;;;;;;4997561;28;20852;-70
2021/12/20 10:43:27;;;;;;;10.07;6.77;;;6.80;83.30;;;;;;4997673;28;20445;-71
2021/12/20 10:45:56;;;;;;;7.07;5.70;;;6.90;82.00;;;;;;4997311;28;20905;-70
2021/12/20 10:48:33;;;;;;;6.87;5.70;;;6.80;80.90;;;;;;4997462;28;20917;-69
2021/12/20 10:51:00;;;;;;;6.63;4.63;;;6.90;80.30;;;;;;4998152;28;20579;-70
2021/12/20 10:53:27;;;;;;;6.70;4.63;;;7.20;79.70;;;;;;4997459;28;20444;-70
2021/12/20 10:55:56;;;;;;;6.90;5.93;;;7.40;78.80;;;;;;4997627;28;20857;-71
2021/12/20 10:58:30;;;;;;;5.70;4.00;;;7.50;76.10;;;;;;4997164;28;20805;-69
2021/12/20 11:01:15;;;;;;;5.70;4.80;;;7.50;75.80;;;;;;4997390;28;20437;-69
2021/12/20 11:03:44;;;;;;;6.43;5.10;;;7.50;74.60;;;;;;4997128;28;20472;-69
2021/12/20 11:06:25;;;;;;;5.97;4.67;;;7.10;75.50;;;;;;4997476;28;20484;-70
2021/12/20 11:09:09;;;;;;;5.00;4.50;;;7.30;75.60;;;;;;4998514;28;20491;-70
2021/12/20 11:11:39;;;;;;;5.60;4.07;;;7.60;75.50;;;;;;4997304;28;20527;-70
2021/12/20 11:14:08;;;;;;;6.50;4.70;;;7.90;75.10;;;;;;4997350;28;20477;-69
2021/12/20 11:16:38;;;;;;;5.23;4.47;;;7.90;72.50;;;;;;4996642;28;20996;-70
2021/12/20 11:19:26;;;;;;;5.90;4.40;;;7.70;73.60;;;;;;4997185;28;20537;-71
2021/12/20 11:22:01;;;;;;;5.87;3.73;;;8.00;73.60;;;;;;4997604;28;20433;-70
2021/12/20 11:24:31;;;;;;;6.53;4.43;;;8.10;72.30;;;;;;4997029;28;20472;-70
2021/12/20 11:27:00;;;;;;;5.87;4.90;;;7.90;72.60;;;;;;4996508;28;21004;-70
2021/12/20 11:29:27;;;;;;;5.27;4.33;;;7.80;74.10;;;;;;4997265;28;20445;-70
2021/12/20 11:31:54;;;;;;;4.57;3.53;;;8.00;73.30;;;;;;4997563;28;20504;-69
2021/12/20 11:34:22;;;;;;;5.37;4.27;;;8.10;72.80;;;;;;4995650;28;20468;-69
2021/12/20 11:36:50;;;;;;;6.60;4.70;;;8.10;73.00;;;;;;4996760;28;20445;-70
2021/12/20 11:39:17;;;;;;;6.03;4.10;;;8.00;73.10;;;;;;4996724;28;20508;-70
2021/12/20 11:41:44;;;;;;;6.10;4.67;;;7.90;73.80;;;;;;4997028;28;20449;-68
2021/12/20 11:44:15;;;;;;;7.50;4.70;;;7.80;74.30;;;;;;4996371;28;20892;-68
2021/12/20 11:46:58;;;;;;;6.13;5.13;;;7.60;74.50;;;;;;4996365;28;20535;-68
2021/12/20 11:49:25;;;;;;;7.90;5.57;;;7.40;75.10;;;;;;4994058;28;20461;-67
2021/12/20 11:52:03;;;;;;;6.77;5.03;;;7.40;75.30;;;;;;4996367;28;20460;-68
2021/12/20 11:54:35;;;;;;;7.57;5.53;;;7.30;75.60;;;;;;4996158;28;20468;-68
2021/12/20 11:57:03;;;;;;;6.83;4.93;;;7.30;75.40;;;;;;4996279;28;20499;-68
2021/12/20 11:59:52;;;;;;;5.70;4.57;;;7.30;75.40;;;;;;4996375;28;20452;-70
2021/12/20 12:02:25;;;;;;;6.10;4.50;;;7.30;75.40;;;;;;4996018;28;20455;-67
2021/12/20 12:05:05;;;;;;;5.70;4.60;;;7.30;74.90;;;;;;4995937;28;21026;-68
2021/12/20 12:07:36;;;;;;;5.90;4.27;;;7.40;74.40;;;;;;4996806;28;20476;-68
2021/12/20 12:10:06;;;;;;;6.23;5.50;;;7.20;75.10;;;;;;4996180;28;20449;-68
2021/12/20 12:12:38;;;;;;;6.50;4.47;;;7.40;75.00;;;;;;4996016;28;20875;-68
2021/12/20 12:15:09;;;;;;;5.73;3.93;;;8.50;75.00;;;;;;4996696;28;20481;-68
2021/12/20 12:17:54;;;;;;;6.90;4.67;;;10.20;69.60;;;;;;4996196;28;20434;-68
2021/12/20 12:20:37;;;;;;;6.00;5.07;;;11.80;62.20;;;;;;4996010;28;20433;-68
2021/12/20 12:23:14;;;;;;;5.83;4.40;;;14.00;58.90;;;;;;4995935;28;20503;-69
2021/12/20 12:25:44;;;;;;;5.30;4.33;;;14.30;55.60;;;;;;4995692;28;20523;-69
2021/12/20 12:28:12;;;;;;;6.10;4.47;;;14.40;54.60;;;;;;4995776;28;20481;-68
2021/12/20 12:30:44;;;;;;;6.73;5.03;;;13.80;55.70;;;;;;4995689;28;20464;-68
2021/12/20 12:33:29;;;;;;;5.00;4.07;;;13.70;56.20;;;;;;4995519;28;20422;-68
2021/12/20 12:35:59;;;;;;;4.80;4.30;;;13.10;56.00;;;;;;4996014;28;20453;-69
2021/12/20 12:38:32;;;;;;;7.07;4.30;;;12.30;58.00;;;;;;4996123;28;20441;-69
2021/12/20 12:41:22;;;;;;;7.00;4.97;;;11.40;59.80;;;;;;4996371;28;20508;-69
2021/12/20 12:44:07;;;;;;;5.37;3.90;;;10.30;63.30;;;;;;4995820;28;20996;-69
2021/12/20 12:46:53;;;;;;;5.57;4.60;;;9.70;65.00;;;;;;4995852;28;20856;-69
2021/12/20 12:49:57;;;;;;;6.33;4.60;;;9.10;67.30;;;;;;5012411;28;20460;-69
2021/12/20 12:52:48;;;;;;;8.23;5.47;;;8.70;68.50;;;;;;4969949;28;20460;-69
2021/12/20 12:55:34;;;;;;;6.57;4.93;;;8.50;69.90;;;;;;4996009;28;20473;-69
2021/12/20 12:58:20;;;;;;;8.20;4.67;;;8.10;71.10;;;;;;4996198;28;20433;-69
2021/12/20 13:00:58;;;;;;;5.47;3.93;;;7.90;71.90;;;;;;4997103;28;20437;-69
2021/12/20 13:03:27;;;;;;;6.07;4.53;;;7.70;72.60;;;;;;4995938;28;20429;-69
2021/12/20 13:05:54;;;;;;;7.50;4.33;;;7.70;73.00;;;;;;4996084;28;20568;-69
2021/12/20 13:08:20;;;;;;;7.10;4.73;;;7.60;73.30;;;;;;4996599;28;20533;-68
2021/12/20 13:10:51;;;;;;;5.83;3.77;;;7.70;73.40;;;;;;4995968;28;20937;-70
2021/12/20 13:13:22;;;;;;;6.43;4.67;;;7.70;73.50;;;;;;4996016;28;20944;-70
2021/12/20 13:15:55;;;;;;;5.77;4.53;;;7.70;73.70;;;;;;4996222;28;20434;-69
2021/12/20 13:18:28;;;;;;;5.90;4.90;;;7.60;74.10;;;;;;4995763;28;20488;-68
2021/12/20 13:21:01;;;;;;;5.13;4.03;;;7.60;74.30;;;;;;4995101;28;20900;-69
2021/12/20 13:23:30;;;;;;;6.90;4.43;;;7.60;74.00;;;;;;4995392;28;20491;-69
2021/12/20 13:25:59;;;;;;;6.13;4.63;;;7.60;74.30;;;;;;4994955;28;20457;-69
2021/12/20 13:28:28;;;;;;;6.03;4.20;;;7.60;74.60;;;;;;4994990;28;20489;-69
2021/12/20 13:30:57;;;;;;;5.20;4.10;;;7.60;74.50;;;;;;4994610;28;20461;-70
2021/12/20 13:33:27;;;;;;;7.03;4.40;;;7.70;74.50;;;;;;4994628;28;20830;-69
2021/12/20 13:35:56;;;;;;;6.70;4.90;;;7.70;74.40;;;;;;4994526;28;20446;-69
2021/12/20 13:38:29;;;;;;;5.70;3.90;;;7.70;74.10;;;;;;4994365;28;20449;-69
2021/12/20 13:41:01;;;;;;;6.00;4.80;;;7.60;74.50;;;;;;4994750;28;20501;-70
2021/12/20 13:43:34;;;;;;;7.00;4.53;;;7.60;74.50;;;;;;4995023;28;20445;-67
2021/12/20 13:46:15;;;;;;;5.57;4.50;;;7.60;75.30;;;;;;4995001;28;20433;-69
2021/12/20 13:48:50;;;;;;;6.77;4.43;;;7.80;74.80;;;;;;4994353;28;20475;-69
2021/12/20 13:51:18;;;;;;;8.73;4.70;;;8.80;73.20;;;;;;4994600;28;20448;-69
2021/12/20 13:53:45;;;;;;;6.23;5.40;;;9.40;69.50;;;;;;4994646;28;20516;-69
2021/12/20 13:56:13;;;;;;;6.10;4.20;;;9.30;68.60;;;;;;4994734;28;20449;-69
2021/12/20 13:58:45;;;;;;;5.73;4.33;;;9.20;68.60;;;;;;4994658;28;20476;-69
2021/12/20 14:01:12;;;;;;;6.20;4.53;;;9.10;68.60;;;;;;4994839;28;20496;-69
2021/12/20 14:03:40;;;;;;;5.60;4.27;;;9.00;69.10;;;;;;4994391;28;20539;-68
2021/12/20 14:06:07;;;;;;;6.27;4.40;;;8.90;69.60;;;;;;4994596;28;20520;-69
2021/12/20 14:08:34;;;;;;;5.50;4.57;;;8.90;69.90;;;;;;4994999;28;20616;-69
2021/12/20 14:11:01;;;;;;;5.30;4.53;;;8.80;69.60;;;;;;4994601;28;20937;-70
2021/12/20 14:13:30;;;;;;;6.97;4.23;;;8.70;69.60;;;;;;4994748;28;20457;-69
2021/12/20 14:15:59;;;;;;;6.60;4.73;;;8.50;70.20;;;;;;4994395;28;20516;-69
2021/12/20 14:18:34;;;;;;;6.80;4.20;;;8.40;70.30;;;;;;4994843;28;20532;-69
2021/12/20 14:21:05;;;;;;;6.60;4.47;;;8.30;70.60;;;;;;4995045;28;20437;-69
2021/12/20 14:23:34;;;;;;;5.13;3.83;;;8.30;70.70;;;;;;4995074;28;20410;-69
2021/12/20 14:26:12;;;;;;;5.90;4.00;;;8.10;70.90;;;;;;4994747;28;20499;-69
2021/12/20 14:28:43;;;;;;;7.83;4.73;;;8.10;71.20;;;;;;4994440;28;20972;-69
2021/12/20 14:31:13;;;;;;;6.10;4.67;;;8.00;71.10;;;;;;4994745;28;20845;-69
2021/12/20 14:33:41;;;;;;;5.03;3.97;;;8.00;71.20;;;;;;4993900;28;21046;-69
2021/12/20 14:36:10;;;;;;;7.33;5.07;;;7.90;70.90;;;;;;4994451;28;20449;-69
2021/12/20 14:38:43;;;;;;;6.87;4.20;;;7.90;70.90;;;;;;4994344;28;20441;-69
2021/12/20 14:41:30;;;;;;;7.20;4.20;;;7.80;70.90;;;;;;4994101;28;20438;-69
2021/12/20 14:44:00;;;;;;;6.13;4.57;;;7.70;71.00;;;;;;4993827;28;20843;-69
2021/12/20 14:46:32;;;;;;;6.17;4.40;;;7.60;70.40;;;;;;4993693;28;20495;-69
2021/12/20 14:49:13;;;;;;;5.63;3.37;;;7.50;70.80;;;;;;4993905;28;20466;-69
2021/12/20 14:51:40;;;;;;;5.53;3.80;;;7.40;70.70;;;;;;4994719;28;20437;-69
2021/12/20 14:54:19;;;;;;;5.33;4.07;;;7.40;70.70;;;;;;4993350;28;20899;-69
2021/12/20 14:56:55;;;;;;;5.50;3.73;;;7.30;70.60;;;;;;4993675;28;20467;-69
2021/12/20 14:59:26;;;;;;;4.70;3.07;;;7.30;70.50;;;;;;4994037;28;20473;-71
2021/12/20 15:01:53;;;;;;;7.00;3.20;;;7.30;70.50;;;;;;4993882;28;20453;-71
2021/12/20 15:04:21;;;;;;;6.00;3.90;;;7.30;70.10;;;;;;4993734;28;20833;-68
2021/12/20 15:06:50;;;;;;;6.27;3.50;;;7.30;70.30;;;;;;4993726;28;20456;-69
2021/12/20 15:09:17;;;;;;;6.00;4.30;;;7.30;70.20;;;;;;4995811;28;20487;-70
2021/12/20 15:11:44;;;;;;;5.30;3.47;;;7.20;70.60;;;;;;4997818;28;20503;-69
2021/12/20 15:14:11;;;;;;;5.30;3.90;;;7.20;70.60;;;;;;4997410;28;20497;-69
2021/12/20 15:16:39;;;;;;;5.57;3.87;;;7.10;70.80;;;;;;4997717;28;20527;-69
2021/12/20 15:19:06;;;;;;;5.70;3.80;;;7.10;71.00;;;;;;4997776;28;20452;-69
2021/12/20 15:21:35;;;;;;;4.87;3.50;;;7.10;71.20;;;;;;4997840;28;20448;-70
2021/12/20 15:24:02;;;;;;;6.13;2.73;;;7.10;71.20;;;;;;4997412;28;20476;-69
2021/12/20 15:26:29;;;;;;;4.40;3.70;;;7.00;71.40;;;;;;4997407;28;20444;-69
2021/12/20 15:28:59;;;;;;;7.23;4.23;;;7.00;71.60;;;;;;4997315;28;20484;-68
2021/12/20 15:31:26;;;;;;;4.57;3.33;;;7.00;71.80;;;;;;4997531;28;20437;-69
2021/12/20 15:33:55;;;;;;;14.43;4.67;;;6.90;71.90;;;;;;4997393;28;20511;-69
2021/12/20 15:36:22;;;;;;;5.23;3.40;;;6.80;71.80;;;;;;4997313;28;20445;-68
2021/12/20 15:38:48;;;;;;;5.10;3.87;;;6.80;72.10;;;;;;4997680;28;20540;-69
2021/12/20 15:41:15;;;;;;;5.60;4.10;;;6.70;72.30;;;;;;4997833;28;20453;-69
2021/12/20 15:43:42;;;;;;;6.33;3.60;;;6.60;72.30;;;;;;4999533;28;20479;-69
2021/12/20 15:46:09;;;;;;;5.20;3.87;;;6.50;72.60;;;;;;4999788;28;20445;-69
2021/12/20 15:48:35;;;;;;;5.93;4.17;;;6.50;72.80;;;;;;4999846;28;20575;-69
2021/12/20 15:51:04;;;;;;;6.63;3.97;;;6.40;73.00;;;;;;4999169;28;20539;-69
2021/12/20 15:53:32;;;;;;;6.93;4.60;;;6.40;73.00;;;;;;4999044;28;20503;-68
2021/12/20 15:56:00;;;;;;;6.73;4.60;;;6.30;73.10;;;;;;4998376;28;20452;-69
2021/12/20 15:58:27;;;;;;;6.77;5.43;;;6.30;73.20;;;;;;4997245;28;20979;-68
2021/12/20 16:00:53;;;;;;;6.20;4.90;;;6.20;73.50;;;;;;4997026;28;20458;-69
2021/12/20 16:03:20;;;;;;;6.70;5.00;;;6.20;73.20;;;;;;4996864;28;20451;-69
2021/12/20 16:05:47;;;;;;;5.20;4.23;;;6.10;73.30;;;;;;4996844;28;20453;-68
2021/12/20 16:08:15;;;;;;;5.57;4.60;;;6.00;73.50;;;;;;4996754;28;20524;-69
2021/12/20 16:10:41;;;;;;;5.03;3.80;;;5.90;73.60;;;;;;4997379;28;20457;-70
2021/12/20 16:13:09;;;;;;;4.63;3.63;;;5.90;73.80;;;;;;4997876;28;20492;-68
2021/12/20 16:15:36;;;;;;;6.30;4.40;;;5.90;73.40;;;;;;5020067;23;20508;-70
2021/12/20 16:18:03;;;;;;;6.30;5.40;;;5.80;73.50;;;;;;4995498;28;20540;-70
2021/12/20 16:20:30;;;;;;;7.20;5.40;;;5.70;73.90;;;;;;4995337;28;20504;-70
2021/12/20 16:22:56;;;;;;;6.00;4.80;;;5.70;74.10;;;;;;4995472;28;20905;-70
2021/12/20 16:25:25;;;;;;;5.77;5.10;;;5.60;74.10;;;;;;4995704;28;20472;-70
2021/12/20 16:27:54;;;;;;;5.03;4.00;;;5.60;74.20;;;;;;4995662;28;20489;-71
2021/12/20 16:30:22;;;;;;;6.10;4.50;;;5.50;74.20;;;;;;4995607;28;20455;-71
2021/12/20 16:32:51;;;;;;;7.80;5.50;;;5.50;74.60;;;;;;4995585;28;20445;-70
2021/12/20 16:35:20;;;;;;;4.83;4.17;;;5.40;74.40;;;;;;4995497;28;20481;-70
2021/12/20 16:37:47;;;;;;;6.10;4.60;;;5.40;74.90;;;;;;4995467;28;20460;-71
2021/12/20 16:40:16;;;;;;;6.30;3.73;;;5.40;74.80;;;;;;4995483;28;20448;-71
2021/12/20 16:42:45;;;;;;;8.47;4.50;;;5.40;74.50;;;;;;4995363;28;20449;-71
2021/12/20 16:45:14;;;;;;;6.50;4.40;;;5.30;74.50;;;;;;4995410;28;20556;-70
2021/12/20 16:47:49;;;;;;;6.30;4.30;;;5.30;74.40;;;;;;4995117;28;20457;-70
2021/12/20 16:50:19;;;;;;;6.30;5.23;;;5.20;74.60;;;;;;4995280;28;20548;-70
2021/12/20 16:52:46;;;;;;;7.37;4.40;;;5.20;75.10;;;;;;4995060;28;20807;-71
2021/12/20 16:55:13;;;;;;;6.53;4.60;;;5.10;75.40;;;;;;4994996;28;20469;-70
2021/12/20 16:57:40;;;;;;;5.03;3.70;;;5.10;75.10;;;;;;4995068;28;20452;-71
2021/12/20 17:00:11;;;;;;;7.87;5.00;;;5.10;75.00;;;;;;4994996;28;20460;-70
2021/12/20 17:02:46;;;;;;;9.73;8.73;;;5.10;74.90;;;;;;4994983;28;20496;-70
2021/12/20 17:05:22;;;;;;;16.27;11.67;;;5.10;75.10;;;;;;4995369;28;20515;-70
2021/12/20 17:07:50;;;;;;;15.33;11.17;;;5.10;75.60;;;;;;4995319;28;20448;-71
2021/12/20 17:10:18;;;;;;;9.50;8.43;;;5.00;75.30;;;;;;4994578;28;20468;-71